Time;durP1;ratioP1;P1;durP2;ratioP2;P2;SDS_P1;SDS_P2;PMS_P1;PMS_P2;Temp;Humidity;BMP_temperature;BMP_pressure;BME280_temperature;BME280_humidity;BME280_pressure;Samples;Min_cycle;Max_cycle;Signal;HPM_P1;HPM_P2
2021/12/28 00:01:32;;;;;;;91.45;35.97;;;;;;;;;;5088473;28;20035;-42
2021/12/28 00:03:59;;;;;;;86.75;32.90;;;;;;;;;;5095682;28;20350;-42
2021/12/28 00:06:27;;;;;;;70.93;31.00;;;;;;;;;;5095621;28;20074;-43
2021/12/28 00:08:53;;;;;;;76.68;29.40;;;;;;;;;;5095435;28;20152;-46
2021/12/28 00:11:19;;;;;;;65.05;28.73;;;;;;;;;;5095186;28;20024;-46
2021/12/28 00:13:45;;;;;;;76.57;33.88;;;;;;;;;;5095560;28;20024;-46
2021/12/28 00:18:44;;;;;;;96.85;39.72;;;;;;;;;;5095517;28;20032;-46
2021/12/28 00:21:10;;;;;;;119.47;26.55;;;;;;;;;;5095417;28;20454;-45
2021/12/28 00:23:41;;;;;;;102.95;27.27;;;;;;;;;;5095186;28;20160;-45
2021/12/28 00:26:08;;;;;;;116.80;31.23;;;;;;;;;;5094956;28;20056;-46
2021/12/28 00:28:35;;;;;;;73.30;30.98;;;;;;;;;;5095004;28;20036;-46
2021/12/28 00:31:02;;;;;;;80.82;24.85;;;;;;;;;;5095377;28;20073;-45
2021/12/28 00:33:28;;;;;;;101.60;47.90;;;;;;;;;;5095175;28;20024;-46
2021/12/28 00:35:54;;;;;;;116.28;37.45;;;;;;;;;;5095081;28;20023;-45
2021/12/28 00:38:22;;;;;;;90.78;26.73;;;;;;;;;;5094950;28;20123;-44
2021/12/28 00:40:50;;;;;;;114.95;31.40;;;;;;;;;;5094816;28;20028;-45
2021/12/28 00:43:16;;;;;;;81.85;28.08;;;;;;;;;;5094922;28;20020;-46
2021/12/28 00:45:42;;;;;;;65.22;28.40;;;;;;;;;;5093612;28;20386;-46
2021/12/28 00:48:09;;;;;;;127.18;23.40;;;;;;;;;;5094893;28;20016;-46
2021/12/28 00:50:37;;;;;;;88.65;33.33;;;;;;;;;;5094838;28;20020;-45
2021/12/28 00:53:04;;;;;;;77.45;36.05;;;;;;;;;;5094543;28;20031;-45
2021/12/28 00:55:30;;;;;;;58.50;24.27;;;;;;;;;;5094648;28;20020;-44
2021/12/28 00:57:56;;;;;;;94.18;35.03;;;;;;;;;;5094920;28;20634;-44
2021/12/28 01:00:26;;;;;;;130.10;24.65;;;;;;;;;;5094547;28;20032;-44
2021/12/28 01:02:54;;;;;;;76.88;29.25;;;;;;;;;;5094005;28;20024;-45
2021/12/28 01:05:20;;;;;;;107.07;21.48;;;;;;;;;;5094577;28;20024;-45
2021/12/28 01:07:46;;;;;;;100.13;19.85;;;;;;;;;;5094447;28;20062;-44
2021/12/28 01:10:14;;;;;;;82.25;27.23;;;;;;;;;;5094411;28;20104;-45
2021/12/28 01:12:40;;;;;;;90.90;21.25;;;;;;;;;;5094673;28;20020;-45
2021/12/28 01:15:08;;;;;;;54.67;20.58;;;;;;;;;;5094405;28;20401;-45
2021/12/28 01:17:35;;;;;;;207.32;20.05;;;;;;;;;;5094280;28;20055;-44
2021/12/28 01:20:01;;;;;;;226.18;24.02;;;;;;;;;;5094339;28;20040;-45
2021/12/28 01:22:27;;;;;;;127.60;23.63;;;;;;;;;;5093672;28;20073;-45
2021/12/28 01:24:53;;;;;;;106.20;22.00;;;;;;;;;;5094093;28;20386;-47
2021/12/28 01:27:20;;;;;;;148.15;20.73;;;;;;;;;;5093838;28;20048;-44
2021/12/28 01:29:46;;;;;;;75.63;23.30;;;;;;;;;;5094156;28;20102;-44
2021/12/28 01:32:14;;;;;;;84.97;23.50;;;;;;;;;;5094063;28;20370;-44
2021/12/28 01:34:41;;;;;;;117.90;20.40;;;;;;;;;;5094126;28;20072;-45
2021/12/28 01:37:07;;;;;;;118.15;18.98;;;;;;;;;;5094033;28;20070;-44
2021/12/28 01:39:34;;;;;;;124.03;21.98;;;;;;;;;;5093808;28;20504;-44
2021/12/28 01:42:02;;;;;;;96.53;20.30;;;;;;;;;;5093872;28;20020;-45
2021/12/28 01:44:31;;;;;;;116.85;22.75;;;;;;;;;;5094091;28;20040;-45
2021/12/28 01:46:57;;;;;;;118.85;22.85;;;;;;;;;;5093796;28;20148;-45
2021/12/28 01:49:23;;;;;;;182.90;25.38;;;;;;;;;;5093954;28;20051;-45
2021/12/28 01:51:50;;;;;;;73.50;29.85;;;;;;;;;;5093816;28;20418;-44
2021/12/28 01:54:16;;;;;;;164.80;32.08;;;;;;;;;;5093681;28;20119;-44
2021/12/28 01:56:48;;;;;;;164.70;31.30;;;;;;;;;;5093489;28;20389;-47
2021/12/28 01:59:17;;;;;;;118.93;24.30;;;;;;;;;;5093527;28;20028;-44
2021/12/28 02:01:43;;;;;;;110.22;21.83;;;;;;;;;;5093734;28;20119;-44
2021/12/28 02:04:17;;;;;;;140.10;25.60;;;;;;;;;;5093565;28;20485;-45
2021/12/28 02:06:43;;;;;;;155.13;22.90;;;;;;;;;;5093567;28;20031;-46
2021/12/28 02:09:10;;;;;;;150.98;22.85;;;;;;;;;;5093398;28;20024;-45
2021/12/28 02:11:36;;;;;;;100.78;27.33;;;;;;;;;;5093579;28;20077;-45
2021/12/28 02:14:05;;;;;;;138.18;27.23;;;;;;;;;;5093635;28;20081;-45
2021/12/28 02:16:35;;;;;;;183.68;27.23;;;;;;;;;;5093614;28;20028;-45
2021/12/28 02:19:03;;;;;;;91.47;31.25;;;;;;;;;;5093502;28;20516;-45
2021/12/28 02:21:32;;;;;;;172.40;28.23;;;;;;;;;;5093455;28;20438;-44
2021/12/28 02:23:58;;;;;;;131.95;29.83;;;;;;;;;;5093272;28;20020;-44
2021/12/28 02:26:25;;;;;;;186.15;28.25;;;;;;;;;;5093241;28;20058;-43
2021/12/28 02:28:53;;;;;;;73.70;31.20;;;;;;;;;;5093328;28;20012;-44
2021/12/28 02:31:20;;;;;;;86.50;30.90;;;;;;;;;;5093323;28;20052;-44
2021/12/28 02:33:50;;;;;;;173.55;28.58;;;;;;;;;;5095203;28;20095;-44
2021/12/28 02:36:17;;;;;;;202.63;32.05;;;;;;;;;;5097478;28;20065;-43
2021/12/28 02:38:43;;;;;;;111.43;32.53;;;;;;;;;;5097211;28;20032;-44
2021/12/28 02:41:12;;;;;;;97.25;27.15;;;;;;;;;;5097423;28;20028;-45
2021/12/28 02:43:40;;;;;;;94.78;25.60;;;;;;;;;;5097371;28;20024;-46
2021/12/28 02:46:07;;;;;;;125.20;23.23;;;;;;;;;;5097291;28;20028;-46
2021/12/28 02:48:34;;;;;;;104.15;22.67;;;;;;;;;;5097179;28;20020;-46
2021/12/28 02:51:08;;;;;;;79.32;24.40;;;;;;;;;;5097151;28;20095;-46
2021/12/28 02:53:37;;;;;;;65.22;27.80;;;;;;;;;;5097244;28;20047;-45
2021/12/28 02:56:03;;;;;;;83.15;26.20;;;;;;;;;;5096943;28;20020;-45
2021/12/28 02:58:33;;;;;;;78.65;30.67;;;;;;;;;;5096982;28;20035;-47
2021/12/28 03:01:04;;;;;;;116.97;21.10;;;;;;;;;;5097019;28;20070;-46
2021/12/28 03:03:31;;;;;;;83.25;28.70;;;;;;;;;;5097004;28;20020;-46
2021/12/28 03:05:58;;;;;;;138.18;24.83;;;;;;;;;;5096887;28;20074;-45
2021/12/28 03:08:26;;;;;;;130.55;27.05;;;;;;;;;;5096899;28;20435;-46
2021/12/28 03:10:52;;;;;;;118.35;24.23;;;;;;;;;;5096976;28;20020;-46
2021/12/28 03:13:20;;;;;;;103.63;27.13;;;;;;;;;;5097097;28;20028;-45
2021/12/28 03:15:47;;;;;;;139.90;26.42;;;;;;;;;;5096787;28;20077;-46
2021/12/28 03:18:13;;;;;;;156.18;29.10;;;;;;;;;;5096603;28;20020;-45
2021/12/28 03:20:39;;;;;;;229.25;29.73;;;;;;;;;;5096503;28;20031;-46
2021/12/28 03:23:05;;;;;;;104.80;22.63;;;;;;;;;;5096556;28;20113;-46
2021/12/28 03:25:31;;;;;;;82.93;26.65;;;;;;;;;;5096559;28;20161;-45
2021/12/28 03:28:00;;;;;;;95.82;27.48;;;;;;;;;;5096355;28;20040;-45
2021/12/28 03:30:26;;;;;;;108.03;25.40;;;;;;;;;;5096414;28;20016;-45
2021/12/28 03:32:52;;;;;;;122.03;26.00;;;;;;;;;;5096440;28;20469;-45
2021/12/28 03:35:18;;;;;;;81.95;21.58;;;;;;;;;;5096412;28;20032;-51
2021/12/28 03:37:45;;;;;;;61.65;24.02;;;;;;;;;;5096685;28;20048;-45
2021/12/28 03:40:13;;;;;;;58.00;24.77;;;;;;;;;;5096100;28;20119;-45
2021/12/28 03:42:39;;;;;;;70.03;25.08;;;;;;;;;;5095065;28;20056;-45
2021/12/28 03:45:11;;;;;;;81.07;25.85;;;;;;;;;;5095501;28;20023;-44
2021/12/28 03:47:37;;;;;;;149.23;23.55;;;;;;;;;;5096067;28;20048;-44
2021/12/28 03:50:05;;;;;;;96.32;23.90;;;;;;;;;;5096057;28;20457;-45
2021/12/28 03:52:32;;;;;;;150.48;25.08;;;;;;;;;;5096025;28;20028;-44
2021/12/28 03:54:58;;;;;;;100.53;24.15;;;;;;;;;;5095924;28;20495;-44
2021/12/28 03:57:24;;;;;;;97.72;24.73;;;;;;;;;;5095941;28;20032;-44
2021/12/28 03:59:50;;;;;;;92.40;24.13;;;;;;;;;;5095947;28;20043;-44
2021/12/28 04:02:16;;;;;;;95.13;21.25;;;;;;;;;;5095822;28;20023;-45
2021/12/28 04:04:42;;;;;;;76.88;23.55;;;;;;;;;;5095776;28;20024;-46
2021/12/28 04:07:17;;;;;;;90.10;23.98;;;;;;;;;;5095726;28;20024;-46
2021/12/28 04:10:08;;;;;;;86.45;22.40;;;;;;;;;;5095745;28;20473;-47
2021/12/28 04:12:32;;;;;;;161.48;25.00;;;;;;;;;;5095193;28;20024;-46
2021/12/28 04:14:58;;;;;;;137.73;24.88;;;;;;;;;;5095688;28;20500;-45
2021/12/28 04:17:25;;;;;;;154.88;24.13;;;;;;;;;;5095334;28;20461;-45
2021/12/28 04:19:52;;;;;;;166.05;25.80;;;;;;;;;;5095488;28;20115;-45
2021/12/28 04:22:18;;;;;;;113.82;24.85;;;;;;;;;;5095469;28;20104;-44
2021/12/28 04:24:44;;;;;;;167.90;26.55;;;;;;;;;;5095319;28;20023;-45
2021/12/28 04:27:10;;;;;;;129.48;26.60;;;;;;;;;;5095536;28;20047;-43
2021/12/28 04:29:36;;;;;;;201.85;26.92;;;;;;;;;;5095490;28;20055;-44
2021/12/28 04:32:03;;;;;;;126.57;24.02;;;;;;;;;;5095356;28;20047;-44
2021/12/28 04:34:29;;;;;;;106.47;25.33;;;;;;;;;;5095409;28;20052;-43
2021/12/28 04:36:55;;;;;;;150.38;25.17;;;;;;;;;;5095439;28;20053;-44
2021/12/28 04:39:21;;;;;;;119.68;25.08;;;;;;;;;;5095072;28;20028;-43
2021/12/28 04:41:47;;;;;;;107.65;30.95;;;;;;;;;;5095343;28;20024;-43
2021/12/28 04:44:13;;;;;;;148.20;27.38;;;;;;;;;;5095147;28;20016;-45
2021/12/28 04:46:40;;;;;;;128.73;28.65;;;;;;;;;;5095128;28;20035;-44
2021/12/28 04:49:06;;;;;;;125.82;27.02;;;;;;;;;;5093611;28;20474;-44
2021/12/28 04:51:32;;;;;;;130.43;32.92;;;;;;;;;;5094848;28;20032;-45
2021/12/28 04:54:01;;;;;;;212.18;33.83;;;;;;;;;;5094805;28;20022;-46
2021/12/28 04:56:27;;;;;;;146.82;27.88;;;;;;;;;;5093876;28;20036;-44
2021/12/28 04:58:53;;;;;;;202.55;31.70;;;;;;;;;;5094588;28;20030;-44
2021/12/28 05:01:19;;;;;;;157.18;28.08;;;;;;;;;;5094653;28;20107;-42
2021/12/28 05:03:45;;;;;;;163.90;27.38;;;;;;;;;;5093752;28;20024;-43
2021/12/28 05:06:11;;;;;;;106.68;23.33;;;;;;;;;;5094754;28;20028;-42
2021/12/28 05:08:40;;;;;;;113.60;24.70;;;;;;;;;;5094663;28;20024;-41
2021/12/28 05:11:06;;;;;;;91.07;24.98;;;;;;;;;;5094693;28;20055;-43
2021/12/28 05:13:33;;;;;;;109.75;22.35;;;;;;;;;;5094509;28;20021;-45
2021/12/28 05:15:59;;;;;;;105.97;24.92;;;;;;;;;;5094765;28;20020;-46
2021/12/28 05:18:25;;;;;;;109.18;28.77;;;;;;;;;;5094379;28;20504;-51
2021/12/28 05:20:51;;;;;;;83.22;25.48;;;;;;;;;;5094584;28;20190;-45
2021/12/28 05:23:17;;;;;;;145.73;21.98;;;;;;;;;;5094413;28;20024;-46
2021/12/28 05:25:43;;;;;;;132.32;25.05;;;;;;;;;;5094123;28;20038;-46
2021/12/28 05:28:09;;;;;;;138.50;19.77;;;;;;;;;;5094103;28;20089;-51
2021/12/28 05:30:36;;;;;;;206.10;22.73;;;;;;;;;;5094230;28;20503;-51
2021/12/28 05:33:03;;;;;;;135.82;23.65;;;;;;;;;;5094077;28;20024;-53
2021/12/28 05:35:29;;;;;;;153.23;20.70;;;;;;;;;;5094174;28;20472;-51
2021/12/28 05:37:55;;;;;;;91.82;24.80;;;;;;;;;;5094311;28;20431;-50
2021/12/28 05:40:22;;;;;;;113.30;24.35;;;;;;;;;;5094017;28;20408;-50
2021/12/28 05:42:48;;;;;;;83.63;26.35;;;;;;;;;;5094031;28;20020;-52
2021/12/28 05:45:14;;;;;;;113.45;29.80;;;;;;;;;;5094071;28;20020;-49
2021/12/28 05:47:40;;;;;;;106.07;24.63;;;;;;;;;;5093875;28;20024;-50
2021/12/28 05:50:07;;;;;;;158.85;21.75;;;;;;;;;;5094086;28;20031;-51
2021/12/28 05:52:33;;;;;;;128.18;23.42;;;;;;;;;;5093853;28;20028;-51
2021/12/28 05:54:59;;;;;;;116.15;25.55;;;;;;;;;;5093749;28;20045;-50
2021/12/28 05:57:26;;;;;;;207.73;27.85;;;;;;;;;;5093626;28;20042;-49
2021/12/28 05:59:52;;;;;;;160.85;26.42;;;;;;;;;;5093680;28;20070;-50
2021/12/28 06:02:18;;;;;;;113.97;24.45;;;;;;;;;;5093535;28;20047;-50
2021/12/28 06:04:44;;;;;;;106.30;24.63;;;;;;;;;;5093851;28;20035;-47
2021/12/28 06:07:10;;;;;;;132.45;22.85;;;;;;;;;;5093687;28;20020;-49
2021/12/28 06:09:36;;;;;;;100.72;26.25;;;;;;;;;;5093347;28;20028;-48
2021/12/28 06:12:03;;;;;;;88.07;30.65;;;;;;;;;;5093734;28;20417;-50
2021/12/28 06:14:29;;;;;;;137.10;25.83;;;;;;;;;;5093497;28;20056;-51
2021/12/28 06:16:57;;;;;;;140.90;24.45;;;;;;;;;;5093618;28;20438;-51
2021/12/28 06:19:23;;;;;;;118.32;29.55;;;;;;;;;;5093515;28;20374;-50
2021/12/28 06:21:52;;;;;;;110.18;25.10;;;;;;;;;;5093554;28;20024;-51
2021/12/28 06:24:20;;;;;;;141.95;22.55;;;;;;;;;;5093346;28;20023;-50
2021/12/28 06:26:49;;;;;;;103.85;22.75;;;;;;;;;;5093291;28;20052;-50
2021/12/28 06:29:21;;;;;;;167.02;27.58;;;;;;;;;;5093255;28;20044;-51
2021/12/28 06:31:47;;;;;;;181.55;26.77;;;;;;;;;;5093287;28;20095;-51
2021/12/28 06:34:13;;;;;;;87.40;24.73;;;;;;;;;;5093404;28;20027;-50
2021/12/28 06:36:39;;;;;;;165.82;23.83;;;;;;;;;;5091858;28;20457;-51
2021/12/28 06:39:06;;;;;;;173.93;30.27;;;;;;;;;;5093229;28;20465;-50
2021/12/28 06:41:33;;;;;;;153.20;30.42;;;;;;;;;;5093103;28;20482;-51
2021/12/28 06:43:59;;;;;;;141.65;30.48;;;;;;;;;;5093179;28;20382;-51
2021/12/28 06:46:25;;;;;;;147.68;28.17;;;;;;;;;;5093108;28;20029;-51
2021/12/28 06:48:51;;;;;;;167.55;28.85;;;;;;;;;;5093317;28;20099;-51
2021/12/28 06:51:17;;;;;;;188.45;26.00;;;;;;;;;;5093107;28;20016;-49
2021/12/28 06:53:46;;;;;;;100.03;28.05;;;;;;;;;;5093053;28;20092;-51
2021/12/28 06:56:12;;;;;;;123.57;33.80;;;;;;;;;;5093041;28;20052;-52
2021/12/28 06:58:40;;;;;;;124.97;31.67;;;;;;;;;;5093048;28;20028;-52
2021/12/28 07:01:06;;;;;;;101.78;33.67;;;;;;;;;;5092737;28;20043;-52
2021/12/28 07:03:33;;;;;;;164.75;24.88;;;;;;;;;;5093141;28;20035;-51
2021/12/28 07:05:59;;;;;;;131.95;30.13;;;;;;;;;;5093185;28;20028;-52
2021/12/28 07:08:26;;;;;;;136.13;26.58;;;;;;;;;;5092833;28;20018;-51
2021/12/28 07:10:52;;;;;;;132.48;25.70;;;;;;;;;;5092938;28;20085;-50
2021/12/28 07:13:18;;;;;;;132.25;27.00;;;;;;;;;;5092846;28;20048;-49
2021/12/28 07:15:44;;;;;;;103.15;26.02;;;;;;;;;;5091553;28;20544;-51
2021/12/28 07:18:10;;;;;;;188.88;38.17;;;;;;;;;;5092884;28;20072;-46
2021/12/28 07:20:36;;;;;;;222.13;39.90;;;;;;;;;;5094109;28;20032;-46
2021/12/28 07:23:05;;;;;;;154.70;32.30;;;;;;;;;;5096818;28;20089;-45
2021/12/28 07:25:31;;;;;;;145.93;31.10;;;;;;;;;;5096471;28;20034;-45
2021/12/28 07:27:58;;;;;;;145.82;34.10;;;;;;;;;;5096387;28;20119;-47
2021/12/28 07:30:24;;;;;;;165.45;38.97;;;;;;;;;;5096476;28;20035;-45
2021/12/28 07:32:51;;;;;;;129.48;37.25;;;;;;;;;;5096253;28;20362;-47
2021/12/28 07:35:17;;;;;;;201.25;41.75;;;;;;;;;;5095721;28;20103;-47
2021/12/28 07:37:43;;;;;;;172.35;39.70;;;;;;;;;;5095937;28;20028;-50
2021/12/28 07:40:10;;;;;;;179.55;54.80;;;;;;;;;;5095533;28;20028;-46
2021/12/28 07:42:39;;;;;;;169.52;47.38;;;;;;;;;;5095896;28;20024;-49
2021/12/28 07:45:07;;;;;;;199.93;49.40;;;;;;;;;;5095671;28;20028;-45
2021/12/28 07:47:33;;;;;;;165.88;49.78;;;;;;;;;;5095598;28;20027;-45
2021/12/28 07:49:59;;;;;;;248.98;42.75;;;;;;;;;;5094304;28;20428;-45
2021/12/28 07:52:25;;;;;;;175.25;44.40;;;;;;;;;;5095606;28;20020;-48
2021/12/28 07:54:51;;;;;;;268.35;40.60;;;;;;;;;;5095578;28;20107;-43
2021/12/28 07:57:19;;;;;;;166.38;39.03;;;;;;;;;;5095283;28;20373;-42
2021/12/28 07:59:45;;;;;;;155.98;36.30;;;;;;;;;;5095403;28;20036;-46
2021/12/28 08:02:11;;;;;;;171.25;40.88;;;;;;;;;;5095209;28;20024;-45
2021/12/28 08:04:37;;;;;;;241.15;41.33;;;;;;;;;;5095317;28;20351;-45
2021/12/28 08:07:04;;;;;;;275.92;39.28;;;;;;;;;;5095247;28;20024;-45
2021/12/28 08:09:30;;;;;;;149.30;35.30;;;;;;;;;;5095291;28;20095;-47
2021/12/28 08:11:56;;;;;;;490.95;55.80;;;;;;;;;;5095097;28;20024;-48
2021/12/28 08:14:22;;;;;;;259.45;52.17;;;;;;;;;;5092329;28;20016;-45
2021/12/28 08:16:48;;;;;;;200.73;48.55;;;;;;;;;;5095436;28;20031;-46
2021/12/28 08:19:15;;;;;;;198.88;38.85;;;;;;;;;;5095111;28;20099;-47
2021/12/28 08:21:43;;;;;;;190.90;36.22;;;;;;;;;;5094928;28;20493;-46
2021/12/28 08:24:09;;;;;;;177.98;36.78;;;;;;;;;;5095072;28;20027;-45
2021/12/28 08:26:35;;;;;;;189.90;37.10;;;;;;;;;;5094797;28;20561;-45
2021/12/28 08:29:01;;;;;;;149.68;49.10;;;;;;;;;;5095032;28;20035;-50
2021/12/28 08:31:28;;;;;;;129.77;44.05;;;;;;;;;;5094701;28;20020;-46
2021/12/28 08:33:55;;;;;;;117.13;39.13;;;;;;;;;;5094724;28;20500;-47
2021/12/28 08:36:23;;;;;;;110.25;39.40;;;;;;;;;;5094531;28;20028;-47
2021/12/28 08:38:49;;;;;;;119.18;42.00;;;;;;;;;;5094551;28;20031;-45
2021/12/28 08:41:17;;;;;;;110.55;42.03;;;;;;;;;;5094342;28;20047;-50
2021/12/28 08:43:45;;;;;;;118.88;43.05;;;;;;;;;;5091941;28;20074;-44
2021/12/28 08:46:11;;;;;;;106.05;39.55;;;;;;;;;;5094530;28;20363;-45
2021/12/28 08:48:37;;;;;;;94.65;38.45;;;;;;;;;;5094974;28;20028;-46
2021/12/28 08:51:06;;;;;;;84.30;33.70;;;;;;;;;;5094794;28;20020;-47
2021/12/28 08:53:32;;;;;;;89.40;36.28;;;;;;;;;;5095091;28;20035;-45
2021/12/28 08:55:58;;;;;;;85.50;35.80;;;;;;;;;;5094774;28;20050;-46
2021/12/28 08:58:25;;;;;;;103.07;44.65;;;;;;;;;;5094608;28;20401;-45
2021/12/28 09:00:51;;;;;;;104.03;45.38;;;;;;;;;;5094727;28;20040;-45
2021/12/28 09:03:17;;;;;;;126.22;46.10;;;;;;;;;;5094894;28;20643;-45
2021/12/28 09:05:45;;;;;;;111.10;45.22;;;;;;;;;;5094897;28;20028;-44
2021/12/28 09:08:16;;;;;;;112.97;45.63;;;;;;;;;;5094922;28;20019;-45
2021/12/28 09:10:42;;;;;;;111.18;45.15;;;;;;;;;;5094701;28;20111;-45
2021/12/28 09:13:09;;;;;;;83.38;38.17;;;;;;;;;;5094618;28;20043;-45
2021/12/28 09:15:36;;;;;;;97.05;41.38;;;;;;;;;;5094373;28;20020;-45
2021/12/28 09:18:02;;;;;;;96.82;41.58;;;;;;;;;;5094437;28;20104;-46
2021/12/28 09:20:28;;;;;;;90.55;41.22;;;;;;;;;;5094400;28;20047;-51
2021/12/28 09:22:56;;;;;;;103.00;45.70;;;;;;;;;;5094580;28;20016;-53
2021/12/28 09:25:22;;;;;;;86.75;39.83;;;;;;;;;;5094275;28;20474;-47
2021/12/28 09:27:49;;;;;;;107.82;50.33;;;;;;;;;;5094441;28;20123;-52
2021/12/28 09:30:15;;;;;;;106.47;46.97;;;;;;;;;;5094254;28;20028;-55
2021/12/28 09:32:41;;;;;;;90.60;38.88;;;;;;;;;;5094157;28;20016;-48
2021/12/28 09:35:08;;;;;;;89.18;38.58;;;;;;;;;;5094440;28;20035;-51
2021/12/28 09:37:34;;;;;;;84.95;38.03;;;;;;;;;;5094081;28;20362;-48
2021/12/28 09:40:01;;;;;;;89.95;35.38;;;;;;;;;;5094164;28;20031;-50
2021/12/28 09:42:27;;;;;;;105.78;44.63;;;;;;;;;;5093584;28;20481;-47
2021/12/28 09:44:53;;;;;;;101.45;45.20;;;;;;;;;;5093773;28;20031;-52
2021/12/28 09:47:20;;;;;;;97.75;44.40;;;;;;;;;;5094038;28;20105;-52
2021/12/28 09:49:46;;;;;;;99.47;41.28;;;;;;;;;;5093937;28;20028;-51
2021/12/28 09:52:13;;;;;;;92.07;43.17;;;;;;;;;;5093836;28;20582;-50
2021/12/28 09:54:39;;;;;;;112.60;49.35;;;;;;;;;;5093784;28;20043;-52
2021/12/28 09:57:05;;;;;;;115.05;45.10;;;;;;;;;;5094024;28;20028;-50
2021/12/28 09:59:32;;;;;;;109.80;44.65;;;;;;;;;;5094245;28;20034;-53
2021/12/28 10:01:59;;;;;;;112.22;47.75;;;;;;;;;;5093503;28;20036;-52
2021/12/28 10:04:26;;;;;;;122.07;48.60;;;;;;;;;;5093774;28;20143;-50
2021/12/28 10:06:52;;;;;;;116.35;47.88;;;;;;;;;;5093852;28;20438;-51
2021/12/28 10:09:24;;;;;;;134.57;55.35;;;;;;;;;;5093700;28;20108;-51
2021/12/28 10:11:55;;;;;;;130.55;53.42;;;;;;;;;;5093726;28;20382;-48
2021/12/28 10:14:25;;;;;;;118.97;48.80;;;;;;;;;;5093573;28;20035;-48
2021/12/28 10:16:53;;;;;;;116.65;47.75;;;;;;;;;;5093464;28;20028;-52
2021/12/28 10:19:31;;;;;;;108.63;45.22;;;;;;;;;;5093502;28;20016;-51
2021/12/28 10:21:58;;;;;;;112.75;44.88;;;;;;;;;;5093298;28;20040;-52
2021/12/28 10:24:31;;;;;;;115.88;46.08;;;;;;;;;;5093549;28;20023;-51
2021/12/28 10:27:17;;;;;;;111.43;46.85;;;;;;;;;;5093200;28;20048;-51
2021/12/28 10:29:43;;;;;;;110.60;47.58;;;;;;;;;;5093509;28;20020;-51
2021/12/28 10:32:16;;;;;;;109.25;51.95;;;;;;;;;;5093563;28;20027;-52
2021/12/28 10:34:49;;;;;;;88.35;39.33;;;;;;;;;;5091916;28;20036;-51
2021/12/28 10:37:21;;;;;;;71.47;36.67;;;;;;;;;;5091993;28;20032;-53
2021/12/28 10:39:48;;;;;;;83.72;40.90;;;;;;;;;;5093000;28;20085;-50
2021/12/28 10:42:32;;;;;;;78.13;37.67;;;;;;;;;;5093434;28;20028;-53
2021/12/28 10:44:59;;;;;;;81.88;40.30;;;;;;;;;;5093307;28;20028;-52
2021/12/28 10:47:28;;;;;;;72.40;38.50;;;;;;;;;;5093671;28;20103;-53
2021/12/28 10:49:56;;;;;;;58.70;32.83;;;;;;;;;;5093091;28;20024;-50
2021/12/28 10:52:29;;;;;;;60.80;33.92;;;;;;;;;;5093100;28;20394;-51
2021/12/28 10:55:14;;;;;;;63.10;35.15;;;;;;;;;;5095550;28;20481;-53
2021/12/28 10:57:41;;;;;;;63.15;36.65;;;;;;;;;;5097325;28;20031;-51
2021/12/28 11:00:26;;;;;;;73.93;42.00;;;;;;;;;;5097059;28;20036;-52
2021/12/28 11:03:10;;;;;;;61.30;35.35;;;;;;;;;;5096947;28;20028;-54
2021/12/28 11:05:36;;;;;;;74.28;42.30;;;;;;;;;;5097062;28;20059;-50
2021/12/28 11:08:03;;;;;;;63.63;35.58;;;;;;;;;;5096984;28;20028;-53
2021/12/28 11:10:29;;;;;;;83.72;46.30;;;;;;;;;;5096907;28;20099;-52
2021/12/28 11:12:55;;;;;;;120.15;61.17;;;;;;;;;;5096947;28;20059;-53
2021/12/28 11:15:22;;;;;;;92.93;50.78;;;;;;;;;;5096844;28;20020;-50
2021/12/28 11:17:48;;;;;;;113.40;60.63;;;;;;;;;;5097034;28;20020;-52
2021/12/28 11:20:15;;;;;;;119.82;62.28;;;;;;;;;;5096894;28;20034;-53
2021/12/28 11:22:41;;;;;;;127.70;59.90;;;;;;;;;;5096902;28;20084;-52
2021/12/28 11:25:17;;;;;;;139.40;65.97;;;;;;;;;;5096811;28;20024;-55
2021/12/28 11:27:43;;;;;;;98.20;52.08;;;;;;;;;;5096290;28;20112;-52
2021/12/28 11:30:15;;;;;;;92.40;47.92;;;;;;;;;;5096670;28;20431;-52
2021/12/28 11:32:43;;;;;;;128.88;61.50;;;;;;;;;;5096426;28;20450;-51
2021/12/28 11:35:09;;;;;;;100.22;50.72;;;;;;;;;;5095120;28;20077;-53
2021/12/28 11:37:35;;;;;;;93.95;48.40;;;;;;;;;;5096511;28;20400;-50
2021/12/28 11:40:08;;;;;;;85.68;44.17;;;;;;;;;;5096371;28;20031;-52
2021/12/28 11:42:34;;;;;;;81.93;43.20;;;;;;;;;;5096440;28;20032;-53
2021/12/28 11:45:01;;;;;;;74.22;40.60;;;;;;;;;;5096652;28;20020;-51
2021/12/28 11:47:28;;;;;;;79.38;42.67;;;;;;;;;;5096166;28;20089;-53
2021/12/28 11:49:57;;;;;;;100.45;47.55;;;;;;;;;;5096237;28;20064;-52
2021/12/28 11:52:23;;;;;;;74.75;40.60;;;;;;;;;;5096118;28;20059;-52
2021/12/28 11:54:51;;;;;;;81.22;44.40;;;;;;;;;;5094845;28;20031;-52
2021/12/28 11:57:20;;;;;;;86.75;46.13;;;;;;;;;;5096311;28;20036;-50
2021/12/28 11:59:53;;;;;;;81.78;43.42;;;;;;;;;;5096229;28;20043;-53
2021/12/28 12:02:20;;;;;;;85.43;45.92;;;;;;;;;;5095862;28;20122;-52
2021/12/28 12:04:48;;;;;;;90.22;49.13;;;;;;;;;;5095983;28;20063;-53
2021/12/28 12:07:17;;;;;;;86.65;46.20;;;;;;;;;;5095177;28;20024;-51
2021/12/28 12:09:49;;;;;;;97.15;50.72;;;;;;;;;;5096070;28;20381;-52
2021/12/28 12:12:17;;;;;;;82.32;45.20;;;;;;;;;;5095741;28;20098;-48
2021/12/28 12:15:09;;;;;;;81.47;44.75;;;;;;;;;;5095901;28;20436;-52
2021/12/28 12:17:38;;;;;;;89.55;48.70;;;;;;;;;;5053389;28;20033;-54
2021/12/28 12:20:04;;;;;;;95.75;50.22;;;;;;;;;;5053468;28;20061;-51
2021/12/28 12:22:30;;;;;;;91.65;46.28;;;;;;;;;;5053079;28;20127;-48
2021/12/28 12:24:57;;;;;;;82.50;41.30;;;;;;;;;;5053055;28;20126;-52
2021/12/28 12:27:39;;;;;;;81.63;45.70;;;;;;;;;;5052879;28;20418;-48
2021/12/28 12:30:19;;;;;;;83.72;43.80;;;;;;;;;;5051849;28;20514;-50
2021/12/28 12:33:05;;;;;;;79.27;42.13;;;;;;;;;;5052325;28;20025;-48
2021/12/28 12:35:33;;;;;;;79.15;42.35;;;;;;;;;;5049829;28;20079;-50
2021/12/28 12:38:01;;;;;;;80.20;42.17;;;;;;;;;;5052286;28;20055;-48
2021/12/28 12:40:45;;;;;;;84.97;46.35;;;;;;;;;;5052277;28;20024;-47
2021/12/28 12:43:12;;;;;;;102.07;52.75;;;;;;;;;;5052408;28;20036;-51
2021/12/28 12:45:54;;;;;;;102.78;53.83;;;;;;;;;;5052169;28;20017;-52
2021/12/28 12:48:32;;;;;;;75.93;40.72;;;;;;;;;;5052203;28;20041;-52
2021/12/28 12:51:17;;;;;;;93.03;49.53;;;;;;;;;;5052078;28;20021;-50
2021/12/28 12:53:50;;;;;;;81.75;42.63;;;;;;;;;;5058194;28;20029;-52
2021/12/28 12:56:17;;;;;;;76.97;42.38;;;;;;;;;;5092299;28;20031;-54
2021/12/28 12:58:47;;;;;;;93.28;45.47;;;;;;;;;;5094400;28;20092;-50
2021/12/28 13:01:22;;;;;;;101.22;52.90;;;;;;;;;;5091817;28;20499;-51
2021/12/28 13:03:48;;;;;;;100.25;50.67;;;;;;;;;;5094157;28;20149;-49
2021/12/28 13:06:17;;;;;;;88.75;41.95;;;;;;;;;;5094086;28;20043;-50
2021/12/28 13:08:56;;;;;;;95.32;46.72;;;;;;;;;;5092470;28;20045;-52
2021/12/28 13:11:29;;;;;;;111.30;54.45;;;;;;;;;;5091841;28;20054;-48
2021/12/28 13:13:55;;;;;;;105.47;49.80;;;;;;;;;;5094135;28;20135;-43
2021/12/28 13:16:26;;;;;;;108.40;47.97;;;;;;;;;;5090267;28;20028;-54
2021/12/28 13:19:06;;;;;;;109.35;48.30;;;;;;;;;;5092947;28;20497;-52
2021/12/28 13:21:32;;;;;;;101.03;47.83;;;;;;;;;;5094771;28;20472;-55
2021/12/28 13:24:11;;;;;;;119.95;54.85;;;;;;;;;;5094196;28;20017;-52
2021/12/28 13:26:43;;;;;;;113.93;48.78;;;;;;;;;;5093992;28;20028;-53
2021/12/28 13:29:11;;;;;;;;;;;;;;;;;;5095075;28;20491;-51
2021/12/28 13:31:37;;;;;;;132.88;54.92;;;;;;;;;;5094269;28;19914;-55
2021/12/28 13:34:03;;;;;;;96.85;44.13;;;;;;;;;;5094063;28;20073;-54
2021/12/28 13:36:29;;;;;;;96.90;46.55;;;;;;;;;;5094074;28;20476;-56
2021/12/28 13:39:09;;;;;;;100.45;46.90;;;;;;;;;;5094094;28;20024;-53
2021/12/28 13:41:38;;;;;;;129.80;58.83;;;;;;;;;;5094220;28;20036;-52
2021/12/28 13:44:05;;;;;;;92.53;45.55;;;;;;;;;;5093209;28;20031;-49
2021/12/28 13:46:31;;;;;;;111.95;50.97;;;;;;;;;;5093579;28;20027;-44
2021/12/28 13:49:01;;;;;;;93.85;42.67;;;;;;;;;;5093380;28;20423;-54
2021/12/28 13:51:29;;;;;;;101.53;46.72;;;;;;;;;;5090743;28;20031;-45
2021/12/28 13:54:00;;;;;;;110.90;48.35;;;;;;;;;;5093353;28;20020;-49
2021/12/28 13:56:32;;;;;;;84.00;40.83;;;;;;;;;;5090241;28;20039;-46
2021/12/28 13:59:04;;;;;;;110.85;49.30;;;;;;;;;;5093071;28;20064;-51
2021/12/28 14:01:32;;;;;;;96.15;45.33;;;;;;;;;;5092953;28;20036;-44
2021/12/28 14:03:59;;;;;;;122.47;58.63;;;;;;;;;;5093787;28;20020;-47
2021/12/28 14:06:26;;;;;;;140.63;68.63;;;;;;;;;;5093512;28;20504;-46
2021/12/28 14:08:53;;;;;;;122.93;62.25;;;;;;;;;;5092491;28;20089;-46
2021/12/28 14:11:32;;;;;;;128.73;62.97;;;;;;;;;;5092538;28;20081;-47
2021/12/28 14:13:58;;;;;;;155.93;78.05;;;;;;;;;;5092493;28;20074;-56
2021/12/28 14:16:24;;;;;;;95.57;45.00;;;;;;;;;;5092692;28;20073;-46